Aviation Digital Data Service (ADDS)

Output produced by METARs form (1128 UTC 29 May 2016)
found at http://www.aviationweather.gov/adds/metars/
 
KJST 291054Z AUTO 00000KT 3SM BR CLR 18/16 A3017 RMK AO2 SLP204 T01780156
KJST 290954Z AUTO 14003KT 10SM FEW065 19/14 A3016 RMK AO2 SLP198 T01890144
KJST 290854Z AUTO 00000KT 10SM FEW070 19/14 A3016 RMK AO2 SLP197 T01940139 55000
KJST 290754Z AUTO 17005KT 10SM CLR 19/14 A3016 RMK AO2 SLP197 T01940144
KJST 290654Z AUTO 20004KT 10SM CLR 20/15 A3016 RMK AO2 SLP200 T02000150
KJST 290554Z AUTO 17007KT 10SM CLR 21/15 A3016 RMK AO2 SLP196 T02110150 10244 20194 56010
KJST 290454Z AUTO 17006KT 10SM CLR 21/16 A3018 RMK AO2 SLP202 T02060161 402890167
KJST 290354Z AUTO 11003KT 10SM CLR 20/16 A3018 RMK AO2 SLP202 T02000161
KJST 290254Z AUTO 28008KT 10SM FEW100 21/17 A3020 RMK AO2 LTG DSNT NW SLP209 T02110167 53010
KJST 290154Z AUTO 16008KT 10SM CLR 22/16 A3019 RMK AO2 LTG DSNT W AND NW SLP206 T02220161
KJST 290054Z AUTO 14003KT 10SM CLR 23/16 A3017 RMK AO2 LTG DSNT SW AND W SLP200 T02330161
KJST 282354Z AUTO 00000KT 10SM FEW030 SCT075 SCT100 24/17 A3016 RMK AO2 SLP199 60005 T02390167 10289 20206 53002
KJST 282310Z AUTO 32003KT 10SM SCT055 SCT075 BKN090 24/17 A3016 RMK AO2 LTG DSNT W T02390172
KJST 282254Z AUTO 03003KT 10SM VCTS BKN060 BKN075 OVC100 24/17 A3015 RMK AO2 LTG DSNT NE AND SW AND W RAE2159B33E45 SLP197 P0000 T02440172
KJST 282154Z AUTO 05005KT 10SM -RA OVC045 27/18 A3014 RMK AO2 LTG DSNT SW RAB50 SLP192 P0000 T02670178
KJST 282054Z AUTO 16005KT 10SM CLR 28/16 A3016 RMK AO2 SLP196 60005 T02780156 58010
KJST 281954Z AUTO 19005KT 10SM CLR 27/17 A3017 RMK AO2 RAE20 TSE1856 SLP199 P0000 T02720172
KJST 281916Z AUTO 14004KT 10SM -RA FEW036 SCT075 SCT120 23/18 A3019 RMK AO2 LTG DSNT ALQDS TSE1856 P0000 T02330178
KJST 281902Z AUTO 00000KT 10SM VCTS -RA SCT033 SCT055 BKN080 24/18 A3019 RMK AO2 LTG DSNT N AND SW TSE1856 P0000 T02390178
KJST 281854Z AUTO 00000KT 8SM -TSRA FEW044 BKN080 OVC110 22/16 A3019 RMK AO2 LTG DSNT SW RAB22 TSB14 SLP209 P0005 T02220161
KJST 281820Z AUTO 16013G20KT 10SM TS SCT039 OVC047 24/15 A3020 RMK AO2 TSB14 T02390150
KJST 281754Z AUTO 00000KT 10SM BKN044 BKN055 BKN120 27/15 A3019 RMK AO2 SLP207 T02720150 10278 20211 58007
KJST 281654Z AUTO 13006KT 10SM SCT049 BKN065 26/16 A3020 RMK AO2 LTG DSNT S SLP211 T02560161
KJST 281554Z AUTO VRB04KT 10SM CLR 27/16 A3022 RMK AO2 SLP217 T02670161
KJST 281454Z AUTO VRB03KT 10SM CLR 25/16 A3021 RMK AO2 SLP214 T02500156 51007
KJST 281354Z AUTO 25004KT 10SM CLR 24/16 A3021 RMK AO2 SLP214 T02390156
KJST 281254Z AUTO 25004KT 10SM CLR 22/16 A3020 RMK AO2 SLP214 T02220156
KJST 281154Z AUTO 19005KT 10SM CLR 21/15 A3019 RMK AO2 SLP207 T02110150 10211 20167 51013
KJST 281054Z AUTO 23005KT 10SM CLR 18/14 A3018 RMK AO2 SLP206 T01830144
KJST 280954Z AUTO 00000KT 10SM CLR 18/14 A3017 RMK AO2 SLP200 T01780139
KJST 280854Z AUTO 21004KT 10SM CLR 19/14 A3015 RMK AO2 SLP192 T01890144 53004
KJST 280754Z AUTO 22005KT 10SM CLR 19/14 A3014 RMK AO2 SLP189 T01940144
KJST 280654Z AUTO 22005KT 10SM CLR 19/14 A3014 RMK AO2 SLP188 T01940144
KJST 280554Z AUTO 23006KT 10SM CLR 19/14 A3014 RMK AO2 SLP190 T01940144 10256 20189 50001
KJST 280454Z AUTO 22006KT 10SM CLR 21/14 A3014 RMK AO2 SLP190 T02060144 402830178
KJST 280354Z AUTO 22005KT 10SM CLR 20/14 A3015 RMK AO2 SLP193 T02000144
KJST 280254Z AUTO 22004KT 10SM CLR 21/14 A3014 RMK AO2 SLP189 T02110144 51012
KJST 280154Z AUTO 16009KT 10SM CLR 21/15 A3013 RMK AO2 SLP188 T02110150
KJST 280054Z AUTO 15008KT 10SM CLR 22/16 A3011 RMK AO2 SLP182 T02220156
KJST 272354Z AUTO 28003KT 10SM CLR 26/14 A3010 RMK AO2 SLP176 T02560139 10283 20250 53001